createdAt,value
2018-05-24T00:00:57.808Z,17.45
2018-05-24T00:03:25.622Z,17.38
2018-05-24T00:05:53.441Z,17.34
2018-05-24T00:08:21.168Z,17.21
2018-05-24T00:10:48.912Z,17.27
2018-05-24T00:13:16.528Z,17.28
2018-05-24T00:15:44.315Z,17.27
2018-05-24T00:18:11.893Z,17.30
2018-05-24T00:20:39.574Z,17.26
2018-05-24T00:23:07.368Z,17.28
2018-05-24T00:25:35.421Z,17.28
2018-05-24T00:28:03.209Z,17.26
2018-05-24T00:30:31.024Z,17.25
2018-05-24T00:32:58.943Z,17.24
2018-05-24T00:35:26.674Z,17.19
2018-05-24T00:37:54.276Z,17.19
2018-05-24T00:40:22.404Z,17.10
2018-05-24T00:42:50.137Z,17.00
2018-05-24T00:45:17.850Z,16.97
2018-05-24T00:47:45.470Z,16.90
2018-05-24T00:50:13.095Z,16.87
2018-05-24T00:52:41.793Z,16.89
2018-05-24T00:55:21.354Z,16.94
2018-05-24T00:57:49.174Z,16.96
2018-05-24T01:00:17.140Z,16.87
2018-05-24T01:02:46.894Z,16.76
2018-05-24T01:05:14.495Z,16.71
2018-05-24T01:07:42.352Z,16.61
2018-05-24T01:10:10.162Z,16.63
2018-05-24T01:12:37.992Z,16.60
2018-05-24T01:15:05.683Z,16.59
2018-05-24T01:17:33.528Z,16.60
2018-05-24T01:20:01.154Z,16.54
2018-05-24T01:22:28.964Z,16.47
2018-05-24T01:24:56.585Z,16.41
2018-05-24T01:27:25.290Z,16.28
2018-05-24T01:29:52.947Z,16.33
2018-05-24T01:32:20.741Z,16.36
2018-05-24T01:34:48.329Z,16.36
2018-05-24T01:37:27.717Z,16.30
2018-05-24T01:39:55.304Z,16.27
2018-05-24T01:42:22.953Z,16.26
2018-05-24T01:44:50.655Z,16.19
2018-05-24T01:47:18.217Z,16.25
2018-05-24T01:49:46.013Z,16.07
2018-05-24T01:52:13.608Z,16.19
2018-05-24T01:54:41.345Z,16.14
2018-05-24T01:57:08.925Z,16.09
2018-05-24T01:59:36.782Z,16.01
2018-05-24T02:02:04.449Z,15.98
2018-05-24T02:04:32.096Z,15.95
2018-05-24T02:06:59.710Z,15.88
2018-05-24T02:09:27.430Z,15.82
2018-05-24T02:11:55.185Z,15.80
2018-05-24T02:14:22.991Z,15.81
2018-05-24T02:16:50.636Z,15.84
2018-05-24T02:19:18.397Z,15.86
2018-05-24T02:21:45.984Z,15.83
2018-05-24T02:24:13.585Z,15.79
2018-05-24T02:26:41.168Z,15.79
2018-05-24T02:29:08.869Z,15.74
2018-05-24T02:31:36.452Z,15.78
2018-05-24T02:34:04.496Z,15.83
2018-05-24T02:36:32.157Z,15.80
2018-05-24T02:38:59.741Z,15.81
2018-05-24T02:41:27.362Z,15.83
2018-05-24T02:43:55.114Z,15.81
2018-05-24T02:46:22.704Z,15.77
2018-05-24T02:48:50.284Z,15.73
2018-05-24T02:51:17.941Z,15.64
2018-05-24T02:53:45.612Z,15.47
2018-05-24T02:56:13.190Z,15.44
2018-05-24T02:58:40.806Z,15.47
2018-05-24T03:01:08.537Z,15.44
2018-05-24T03:03:36.265Z,15.53
2018-05-24T03:06:03.862Z,15.53
2018-05-24T03:08:31.598Z,15.64
2018-05-24T03:10:59.180Z,15.70
2018-05-24T03:13:26.929Z,15.76
2018-05-24T03:15:54.706Z,15.79
2018-05-24T03:18:22.284Z,15.91
2018-05-24T03:20:50.081Z,15.94
2018-05-24T03:23:17.680Z,15.97
2018-05-24T03:25:45.429Z,16.02
2018-05-24T03:28:13.023Z,16.11
2018-05-24T03:30:40.789Z,16.13
2018-05-24T03:33:08.392Z,16.16
2018-05-24T03:35:36.244Z,16.18
2018-05-24T03:38:03.941Z,16.20
2018-05-24T03:40:31.536Z,16.21
2018-05-24T03:42:59.378Z,16.17
2018-05-24T03:45:26.973Z,16.17
2018-05-24T03:47:54.610Z,16.17
2018-05-24T03:50:22.216Z,16.12
2018-05-24T03:52:50.128Z,16.28
2018-05-24T03:55:17.821Z,16.42
2018-05-24T03:57:46.838Z,16.47
2018-05-24T04:00:27.007Z,16.51
2018-05-24T04:03:07.386Z,16.52
2018-05-24T04:05:35.438Z,16.56
2018-05-24T04:08:03.154Z,16.65
2018-05-24T04:10:31.715Z,16.68
2018-05-24T04:12:59.639Z,16.78
2018-05-24T04:15:27.481Z,16.89
2018-05-24T04:17:55.177Z,16.94
2018-05-24T04:20:22.986Z,17.03
2018-05-24T04:22:50.634Z,17.10
2018-05-24T04:25:18.455Z,17.10
2018-05-24T04:27:46.175Z,17.07
2018-05-24T04:30:13.922Z,17.16
2018-05-24T04:32:41.500Z,17.31
2018-05-24T04:35:09.092Z,17.49
2018-05-24T04:37:37.059Z,17.58
2018-05-24T04:40:05.491Z,17.68
2018-05-24T04:42:33.201Z,17.77
2018-05-24T04:45:01.768Z,17.84
2018-05-24T04:47:29.424Z,17.92
2018-05-24T04:49:57.057Z,18.03
2018-05-24T04:52:24.644Z,18.14
2018-05-24T04:54:52.280Z,18.31
2018-05-24T04:57:19.917Z,18.48
2018-05-24T04:59:47.505Z,18.59
2018-05-24T05:02:15.232Z,18.71
2018-05-24T05:04:42.855Z,18.78
2018-05-24T05:07:10.436Z,18.86
2018-05-24T05:09:38.025Z,18.99
2018-05-24T05:12:05.668Z,19.07
2018-05-24T05:14:33.589Z,19.12
2018-05-24T05:17:01.346Z,19.19
2018-05-24T05:19:29.080Z,19.27
2018-05-24T05:21:56.793Z,19.38
2018-05-24T05:24:24.574Z,19.49
2018-05-24T05:26:52.418Z,19.56
2018-05-24T05:29:20.000Z,19.70
2018-05-24T05:31:47.645Z,19.76
2018-05-24T05:34:15.224Z,19.88
2018-05-24T05:36:42.812Z,20.00
2018-05-24T05:39:10.398Z,20.22
2018-05-24T05:41:37.980Z,20.68
2018-05-24T05:44:05.745Z,21.07
2018-05-24T05:46:33.324Z,21.40
2018-05-24T05:49:00.944Z,21.70
2018-05-24T05:51:28.746Z,21.82
2018-05-24T05:53:56.516Z,21.91
2018-05-24T05:56:24.816Z,22.02
2018-05-24T05:58:52.396Z,22.27
2018-05-24T06:01:20.188Z,22.53
2018-05-24T06:03:47.969Z,22.84
2018-05-24T06:06:15.641Z,23.02
2018-05-24T06:08:43.311Z,23.17
2018-05-24T06:11:10.897Z,23.25
2018-05-24T06:13:38.497Z,23.03
2018-05-24T06:16:06.375Z,22.97
2018-05-24T06:18:33.960Z,23.05
2018-05-24T06:21:01.545Z,23.18
2018-05-24T06:23:29.436Z,23.18
2018-05-24T06:25:56.993Z,23.37
2018-05-24T06:28:24.885Z,23.56
2018-05-24T06:30:52.693Z,23.73
2018-05-24T06:33:20.311Z,23.86
2018-05-24T06:35:48.673Z,23.99
2018-05-24T06:38:16.548Z,23.96
2018-05-24T06:40:44.381Z,23.95
2018-05-24T06:43:12.221Z,23.78
2018-05-24T06:45:40.020Z,23.71
2018-05-24T06:48:07.618Z,23.86
2018-05-24T06:50:35.456Z,24.13
2018-05-24T06:53:03.044Z,24.35
2018-05-24T06:55:30.620Z,24.62
2018-05-24T06:57:58.411Z,24.92
2018-05-24T07:00:26.230Z,25.09
2018-05-24T07:02:53.825Z,25.25
2018-05-24T07:05:21.420Z,25.93
2018-05-24T07:07:48.988Z,26.48
2018-05-24T07:10:16.572Z,26.93
2018-05-24T07:12:44.223Z,27.41
2018-05-24T07:15:11.864Z,27.88
2018-05-24T07:17:39.588Z,28.25
2018-05-24T07:20:07.173Z,28.60
2018-05-24T07:22:34.764Z,28.87
2018-05-24T07:25:02.348Z,28.92
2018-05-24T07:27:29.945Z,28.80
2018-05-24T07:29:57.530Z,28.81
2018-05-24T07:32:25.177Z,28.81
2018-05-24T07:34:52.985Z,28.93
2018-05-24T07:37:20.575Z,29.03
2018-05-24T07:39:48.225Z,28.91
2018-05-24T07:42:15.741Z,28.69
2018-05-24T07:44:43.554Z,28.58
2018-05-24T07:47:11.130Z,28.59
2018-05-24T07:49:38.837Z,28.58
2018-05-24T07:52:06.591Z,28.67
2018-05-24T07:54:34.164Z,28.80
2018-05-24T07:57:01.946Z,28.83
2018-05-24T07:59:29.763Z,28.55
2018-05-24T08:01:57.412Z,28.68
2018-05-24T08:04:24.996Z,29.04
2018-05-24T08:06:52.817Z,29.28
2018-05-24T08:09:20.401Z,29.39
2018-05-24T08:11:48.127Z,29.87
2018-05-24T08:14:15.761Z,30.37
2018-05-24T08:16:43.391Z,30.78
2018-05-24T08:19:11.116Z,31.05
2018-05-24T08:21:38.931Z,31.07
2018-05-24T08:24:06.747Z,30.90
2018-05-24T08:26:34.333Z,30.82
2018-05-24T08:29:01.905Z,30.94
2018-05-24T08:31:29.542Z,30.88
2018-05-24T08:33:57.116Z,30.73
2018-05-24T08:36:24.813Z,30.98
2018-05-24T08:38:52.425Z,31.17
2018-05-24T08:41:20.109Z,30.41
2018-05-24T08:43:47.696Z,29.94
2018-05-24T08:46:15.273Z,29.66
2018-05-24T08:48:42.921Z,29.69
2018-05-24T08:51:10.508Z,29.70
2018-05-24T08:53:38.262Z,29.65
2018-05-24T08:56:06.081Z,29.32
2018-05-24T08:58:33.673Z,29.11
2018-05-24T09:01:01.273Z,29.17
2018-05-24T09:03:28.848Z,29.52
2018-05-24T09:05:56.476Z,29.95
2018-05-24T09:08:24.048Z,30.19
2018-05-24T09:10:51.888Z,30.39
2018-05-24T09:13:19.708Z,30.84
2018-05-24T09:15:47.276Z,30.68
2018-05-24T09:18:14.896Z,30.39
2018-05-24T09:20:42.464Z,30.35
2018-05-24T09:23:10.281Z,29.81
2018-05-24T09:25:38.098Z,29.76
2018-05-24T09:28:05.841Z,30.09
2018-05-24T09:30:33.635Z,30.33
2018-05-24T09:33:01.214Z,30.47
2018-05-24T09:35:28.788Z,30.55
2018-05-24T09:37:56.380Z,30.46
2018-05-24T09:40:24.010Z,30.03
2018-05-24T09:42:51.825Z,29.57
2018-05-24T09:45:19.404Z,29.61
2018-05-24T09:47:46.981Z,30.15
2018-05-24T09:50:14.557Z,30.01
2018-05-24T09:52:42.132Z,29.76
2018-05-24T09:55:09.778Z,29.50
2018-05-24T09:57:37.533Z,29.45
2018-05-24T10:00:05.268Z,29.22
2018-05-24T10:02:33.071Z,28.98
2018-05-24T10:05:00.651Z,29.36
2018-05-24T10:07:28.240Z,29.75
2018-05-24T10:09:55.824Z,29.88
2018-05-24T10:12:23.409Z,30.01
2018-05-24T10:14:51.008Z,29.78
2018-05-24T10:17:18.656Z,29.60
2018-05-24T10:19:46.228Z,29.15
2018-05-24T10:22:13.855Z,29.03
2018-05-24T10:24:41.434Z,28.96
2018-05-24T10:27:09.014Z,28.92
2018-05-24T10:29:36.867Z,28.78
2018-05-24T10:32:04.470Z,28.78
2018-05-24T10:34:32.148Z,28.90
2018-05-24T10:37:00.109Z,29.23
2018-05-24T10:39:27.990Z,29.18
2018-05-24T10:41:55.574Z,29.16
2018-05-24T10:44:23.278Z,29.06
2018-05-24T10:46:50.855Z,28.85
2018-05-24T10:49:18.614Z,28.66
2018-05-24T10:51:46.240Z,28.47
2018-05-24T10:54:14.133Z,28.36
2018-05-24T10:56:41.719Z,28.35
2018-05-24T10:59:09.311Z,28.46
2018-05-24T11:01:36.901Z,28.47
2018-05-24T11:04:04.724Z,28.52
2018-05-24T11:06:32.542Z,28.80
2018-05-24T11:09:00.172Z,29.05
2018-05-24T11:11:27.754Z,29.23
2018-05-24T11:13:55.332Z,29.40
2018-05-24T11:16:22.965Z,29.59
2018-05-24T11:18:50.837Z,29.72
2018-05-24T11:21:18.652Z,29.57
2018-05-24T11:23:46.234Z,29.26
2018-05-24T11:26:13.877Z,29.14
2018-05-24T11:28:41.560Z,29.08
2018-05-24T11:31:09.056Z,28.99
2018-05-24T11:33:36.640Z,28.95
2018-05-24T11:36:04.290Z,29.02
2018-05-24T11:38:31.841Z,29.18
2018-05-24T11:40:59.427Z,29.26
2018-05-24T11:43:27.108Z,29.38
2018-05-24T11:45:54.671Z,29.56
2018-05-24T11:48:22.244Z,29.66
2018-05-24T11:50:49.828Z,29.84
2018-05-24T11:53:17.411Z,29.82
2018-05-24T11:55:45.016Z,29.86
2018-05-24T11:58:12.600Z,29.92
2018-05-24T12:00:40.234Z,30.02
2018-05-24T12:03:07.808Z,30.06
2018-05-24T12:05:35.381Z,30.24
2018-05-24T12:08:02.989Z,30.00
2018-05-24T12:10:30.565Z,29.81
2018-05-24T12:12:58.152Z,29.83
2018-05-24T12:15:25.705Z,29.90
2018-05-24T12:17:53.437Z,29.68
2018-05-24T12:20:21.022Z,29.54
2018-05-24T12:22:48.632Z,29.44
2018-05-24T12:25:16.229Z,29.42
2018-05-24T12:27:43.807Z,29.37
2018-05-24T12:30:11.399Z,29.36
2018-05-24T12:32:38.973Z,29.21
2018-05-24T12:35:06.613Z,29.29
2018-05-24T12:37:34.167Z,29.03
2018-05-24T12:40:01.746Z,29.13
2018-05-24T12:42:29.333Z,29.38
2018-05-24T12:44:56.903Z,29.69
2018-05-24T12:47:24.470Z,29.65
2018-05-24T12:49:52.057Z,29.07
2018-05-24T12:52:19.694Z,28.75
2018-05-24T12:54:47.268Z,28.44
2018-05-24T12:57:14.844Z,28.02
2018-05-24T12:59:42.436Z,27.77
2018-05-24T13:02:10.016Z,27.63
2018-05-24T13:04:37.608Z,27.81
2018-05-24T13:07:05.219Z,27.80
2018-05-24T13:09:32.850Z,27.78
2018-05-24T13:12:00.428Z,27.85
2018-05-24T13:14:28.009Z,27.97
2018-05-24T13:16:55.639Z,28.11
2018-05-24T13:19:23.201Z,28.28
2018-05-24T13:21:50.807Z,28.51
2018-05-24T13:24:18.381Z,28.94
2018-05-24T13:26:46.025Z,29.27
2018-05-24T13:29:13.630Z,29.49
2018-05-24T13:31:41.205Z,29.74
2018-05-24T13:34:08.789Z,29.87
2018-05-24T13:36:36.368Z,29.87
2018-05-24T13:39:04.120Z,29.95
2018-05-24T13:41:31.692Z,30.09
2018-05-24T13:43:59.281Z,30.00
2018-05-24T13:46:26.872Z,30.08
2018-05-24T13:48:54.500Z,29.97
2018-05-24T13:51:22.136Z,29.88
2018-05-24T13:53:49.754Z,29.66
2018-05-24T13:56:17.413Z,29.43
2018-05-24T13:58:44.997Z,29.16
2018-05-24T14:01:12.576Z,29.27
2018-05-24T14:03:40.312Z,29.11
2018-05-24T14:06:07.888Z,29.00
2018-05-24T14:08:35.478Z,28.83
2018-05-24T14:11:03.110Z,28.80
2018-05-24T14:13:30.695Z,28.90
2018-05-24T14:15:58.328Z,28.90
2018-05-24T14:18:25.906Z,28.78
2018-05-24T14:20:53.496Z,28.74
2018-05-24T14:23:21.081Z,28.58
2018-05-24T14:25:48.652Z,28.29
2018-05-24T14:28:16.281Z,28.04
2018-05-24T14:30:43.863Z,27.89
2018-05-24T14:33:11.448Z,27.75
2018-05-24T14:35:39.029Z,27.60
2018-05-24T14:38:06.649Z,27.45
2018-05-24T14:40:34.279Z,27.37
2018-05-24T14:43:01.900Z,27.30
2018-05-24T14:45:29.488Z,27.22
2018-05-24T14:47:57.074Z,27.11
2018-05-24T14:50:24.653Z,26.96
2018-05-24T14:52:52.297Z,26.75
2018-05-24T14:55:19.871Z,26.69
2018-05-24T14:57:47.448Z,26.71
2018-05-24T15:00:15.037Z,26.67
2018-05-24T15:02:42.617Z,26.56
2018-05-24T15:05:10.252Z,26.47
2018-05-24T15:07:37.823Z,26.27
2018-05-24T15:10:05.441Z,26.07
2018-05-24T15:12:33.024Z,26.01
2018-05-24T15:15:00.605Z,25.90
2018-05-24T15:17:28.191Z,25.82
2018-05-24T15:19:55.780Z,25.71
2018-05-24T15:22:23.404Z,25.55
2018-05-24T15:24:50.988Z,25.54
2018-05-24T15:27:18.568Z,25.51
2018-05-24T15:29:46.157Z,25.38
2018-05-24T15:32:13.732Z,25.24
2018-05-24T15:34:41.385Z,25.00
2018-05-24T15:37:08.966Z,24.88
2018-05-24T15:39:36.553Z,24.84
2018-05-24T15:42:04.147Z,24.69
2018-05-24T15:44:31.776Z,24.39
2018-05-24T15:46:59.430Z,24.08
2018-05-24T15:49:27.027Z,24.02
2018-05-24T15:51:54.605Z,24.16
2018-05-24T15:54:22.193Z,24.49
2018-05-24T15:56:49.769Z,24.81
2018-05-24T15:59:17.408Z,25.14
2018-05-24T16:01:44.984Z,25.40
2018-05-24T16:04:12.559Z,25.65
2018-05-24T16:06:40.173Z,25.85
2018-05-24T16:09:07.752Z,26.01
2018-05-24T16:11:35.385Z,26.07
2018-05-24T16:14:03.056Z,26.22
2018-05-24T16:16:30.628Z,26.31
2018-05-24T16:18:58.215Z,26.36
2018-05-24T16:21:25.787Z,26.45
2018-05-24T16:23:53.438Z,26.42
2018-05-24T16:26:21.016Z,26.30
2018-05-24T16:28:48.592Z,26.06
2018-05-24T16:31:16.199Z,25.85
2018-05-24T16:33:43.841Z,25.76
2018-05-24T16:36:11.484Z,25.72
2018-05-24T16:38:39.064Z,25.59
2018-05-24T16:41:06.669Z,25.57
2018-05-24T16:43:34.261Z,25.44
2018-05-24T16:46:01.893Z,25.39
2018-05-24T16:48:29.834Z,25.22
2018-05-24T16:50:57.420Z,24.90
2018-05-24T16:53:24.997Z,24.69
2018-05-24T16:55:52.593Z,24.45
2018-05-24T16:58:20.310Z,24.07
2018-05-24T17:00:48.125Z,23.76
2018-05-24T17:03:15.944Z,23.44
2018-05-24T17:05:43.538Z,23.16
2018-05-24T17:08:11.140Z,22.94
2018-05-24T17:10:38.729Z,22.81
2018-05-24T17:13:06.578Z,22.69
2018-05-24T17:15:34.219Z,22.68
2018-05-24T17:18:02.055Z,22.65
2018-05-24T17:20:29.705Z,22.64
2018-05-24T17:22:57.280Z,22.68
2018-05-24T17:25:24.986Z,22.66
2018-05-24T17:27:52.570Z,22.67
2018-05-24T17:30:20.319Z,22.65
2018-05-24T17:32:47.908Z,22.63
2018-05-24T17:35:15.684Z,22.58
2018-05-24T17:37:43.272Z,22.55
2018-05-24T17:40:10.854Z,22.44
2018-05-24T17:42:38.486Z,22.38
2018-05-24T17:45:06.099Z,22.31
2018-05-24T17:47:33.770Z,22.33
2018-05-24T17:50:01.363Z,22.31
2018-05-24T17:52:28.945Z,22.32
2018-05-24T17:54:56.722Z,22.18
2018-05-24T17:57:24.541Z,22.13
2018-05-24T17:59:52.173Z,22.08
2018-05-24T18:02:19.757Z,21.99
2018-05-24T18:04:47.339Z,21.96
2018-05-24T18:07:14.923Z,21.93
2018-05-24T18:09:42.499Z,21.88
2018-05-24T18:12:10.350Z,21.84
2018-05-24T18:14:38.169Z,21.77
2018-05-24T18:17:05.987Z,21.65
2018-05-24T18:19:33.564Z,21.65
2018-05-24T18:22:01.328Z,21.51
2018-05-24T18:24:28.902Z,21.38
2018-05-24T18:26:56.483Z,21.39
2018-05-24T18:29:24.078Z,21.28
2018-05-24T18:31:51.896Z,21.25
2018-05-24T18:34:19.536Z,21.18
2018-05-24T18:36:47.301Z,21.14
2018-05-24T18:39:14.884Z,21.12
2018-05-24T18:41:42.477Z,21.11
2018-05-24T18:44:10.288Z,21.08
2018-05-24T18:46:37.879Z,21.05
2018-05-24T18:49:05.463Z,21.01
2018-05-24T18:51:33.132Z,20.91
2018-05-24T18:54:00.959Z,20.86
2018-05-24T18:56:28.551Z,20.80
2018-05-24T18:58:56.140Z,20.77
2018-05-24T19:01:23.718Z,20.66
2018-05-24T19:03:51.531Z,20.61
2018-05-24T19:06:19.351Z,20.58
2018-05-24T19:08:46.944Z,20.49
2018-05-24T19:11:14.664Z,20.40
2018-05-24T19:13:42.505Z,20.23
2018-05-24T19:16:10.325Z,20.22
2018-05-24T19:18:38.046Z,20.15
2018-05-24T19:21:06.569Z,20.18
2018-05-24T19:23:34.148Z,20.09
2018-05-24T19:26:03.006Z,20.03
2018-05-24T19:28:30.570Z,19.95
2018-05-24T19:30:58.418Z,19.88
2018-05-24T19:33:26.414Z,19.84
2018-05-24T19:35:54.057Z,19.78
2018-05-24T19:38:21.699Z,19.68
2018-05-24T19:40:49.560Z,19.54
2018-05-24T19:43:17.160Z,19.47
2018-05-24T19:45:44.808Z,19.47
2018-05-24T19:48:12.494Z,19.49
2018-05-24T19:50:40.078Z,19.46
2018-05-24T19:53:07.786Z,19.39
2018-05-24T19:55:35.377Z,19.35
2018-05-24T19:58:02.961Z,19.29
2018-05-24T20:00:30.563Z,19.28
2018-05-24T20:02:58.277Z,19.29
2018-05-24T20:05:25.928Z,19.25
2018-05-24T20:07:53.517Z,19.20
2018-05-24T20:10:21.170Z,19.22
2018-05-24T20:12:48.765Z,19.21
2018-05-24T20:15:16.364Z,19.19
2018-05-24T20:17:43.959Z,19.16
2018-05-24T20:20:11.589Z,19.16
2018-05-24T20:22:39.347Z,19.14
2018-05-24T20:25:06.929Z,19.04
2018-05-24T20:27:34.500Z,19.02
2018-05-24T20:30:02.135Z,19.00
2018-05-24T20:32:29.975Z,18.95
2018-05-24T20:34:57.565Z,18.95
2018-05-24T20:37:25.157Z,18.95
2018-05-24T20:39:52.809Z,18.93
2018-05-24T20:42:20.397Z,18.96
2018-05-24T20:44:48.034Z,18.95
2018-05-24T20:47:15.613Z,18.91
2018-05-24T20:49:43.192Z,18.81
2018-05-24T20:52:10.784Z,18.71
2018-05-24T20:54:38.430Z,18.58
2018-05-24T20:57:06.151Z,18.50
2018-05-24T20:59:33.736Z,18.45
2018-05-24T21:02:01.320Z,18.44
2018-05-24T21:04:28.912Z,18.38
2018-05-24T21:06:56.556Z,18.37
2018-05-24T21:09:24.205Z,18.31
2018-05-24T21:11:51.861Z,18.31
2018-05-24T21:14:19.559Z,18.25
2018-05-24T21:16:47.141Z,18.10
2018-05-24T21:19:14.729Z,18.15
2018-05-24T21:21:42.330Z,18.12
2018-05-24T21:24:09.924Z,18.15
2018-05-24T21:26:37.560Z,18.13
2018-05-24T21:29:05.385Z,18.16
2018-05-24T21:31:32.972Z,18.14
2018-05-24T21:34:00.687Z,18.15
2018-05-24T21:36:28.260Z,18.13
2018-05-24T21:38:55.909Z,18.12
2018-05-24T21:41:23.675Z,18.05
2018-05-24T21:43:51.261Z,18.01
2018-05-24T21:46:19.015Z,17.97
2018-05-24T21:48:46.596Z,17.95
2018-05-24T21:51:14.216Z,17.89
2018-05-24T21:53:42.009Z,17.89
2018-05-24T21:56:09.660Z,17.87
2018-05-24T21:58:37.244Z,17.77
2018-05-24T22:01:04.921Z,17.81
2018-05-24T22:03:32.537Z,17.76
2018-05-24T22:06:00.121Z,17.71
2018-05-24T22:08:27.715Z,17.64
2018-05-24T22:10:55.515Z,17.60
2018-05-24T22:13:23.202Z,17.56
2018-05-24T22:15:50.781Z,17.56
2018-05-24T22:18:18.434Z,17.58
2018-05-24T22:20:46.032Z,17.58
2018-05-24T22:23:13.676Z,17.58
2018-05-24T22:25:41.296Z,17.56
2018-05-24T22:28:08.890Z,17.50
2018-05-24T22:30:36.525Z,17.45
2018-05-24T22:33:04.355Z,17.42
2018-05-24T22:35:31.940Z,17.37
2018-05-24T22:37:59.524Z,17.34
2018-05-24T22:40:27.310Z,17.21
2018-05-24T22:42:54.900Z,17.23
2018-05-24T22:45:22.488Z,17.17
2018-05-24T22:47:50.141Z,17.11
2018-05-24T22:50:17.720Z,17.03
2018-05-24T22:52:45.309Z,17.00
2018-05-24T22:55:12.911Z,17.05
2018-05-24T22:57:40.474Z,17.08
2018-05-24T23:00:08.251Z,17.03
2018-05-24T23:02:36.072Z,17.06
2018-05-24T23:05:03.828Z,17.04
2018-05-24T23:07:31.380Z,17.02
2018-05-24T23:09:58.964Z,16.96
2018-05-24T23:12:26.625Z,16.88
2018-05-24T23:14:54.203Z,16.87
2018-05-24T23:17:21.798Z,16.89
2018-05-24T23:19:49.598Z,16.86
2018-05-24T23:22:29.049Z,16.85
2018-05-24T23:24:56.642Z,16.86
2018-05-24T23:27:24.219Z,16.89
2018-05-24T23:29:51.814Z,16.89
2018-05-24T23:32:19.590Z,16.88
2018-05-24T23:34:47.257Z,16.87
2018-05-24T23:37:14.842Z,16.83
2018-05-24T23:39:42.476Z,16.83
2018-05-24T23:42:10.282Z,16.80
2018-05-24T23:44:38.021Z,16.78
2018-05-24T23:47:05.840Z,16.71
2018-05-24T23:49:33.432Z,16.69
2018-05-24T23:52:01.036Z,16.69
2018-05-24T23:54:28.796Z,16.64
2018-05-24T23:56:56.432Z,16.55
2018-05-24T23:59:24.200Z,16.44
